TimeCST,TemperatureF,Dew PointF,Humidity,Sea Level PressureIn,VisibilityMPH,Wind Direction,Wind SpeedMPH,Gust SpeedMPH,PrecipitationIn,Events,Conditions,WindDirDegrees,DateUTC
12:52 AM,59.0,55.0,87,29.81,7.0,SSE,10.4,-,N/A,,Clear,160,2012-12-03 06:52:00
1:52 AM,63.0,57.0,81,29.78,9.0,South,15.0,25.3,N/A,,Clear,180,2012-12-03 07:52:00
2:52 AM,63.0,57.9,84,29.77,10.0,South,15.0,23.0,N/A,,Clear,170,2012-12-03 08:52:00
3:52 AM,64.0,57.9,80,29.73,10.0,South,16.1,23.0,N/A,,Clear,170,2012-12-03 09:52:00
4:52 AM,64.9,57.9,78,29.70,10.0,South,16.1,24.2,N/A,,Clear,180,2012-12-03 10:52:00
5:52 AM,64.9,57.0,75,29.70,10.0,South,17.3,27.6,N/A,,Clear,180,2012-12-03 11:52:00
6:52 AM,64.9,57.0,75,29.70,10.0,South,19.6,28.8,N/A,,Clear,190,2012-12-03 12:52:00
7:45 AM,64.4,57.2,77,29.72,10.0,South,18.4,34.5,N/A,,Mostly Cloudy,190,2012-12-03 13:45:00
7:52 AM,64.9,57.9,78,29.71,10.0,SSW,23.0,31.1,N/A,,Mostly Cloudy,200,2012-12-03 13:52:00
8:52 AM,66.0,57.9,75,29.72,10.0,SSW,16.1,29.9,N/A,,Overcast,200,2012-12-03 14:52:00
9:52 AM,69.1,59.0,70,29.72,10.0,SSW,19.6,26.5,N/A,,Overcast,200,2012-12-03 15:52:00
10:36 AM,69.8,57.2,64,29.74,10.0,SSW,28.8,36.8,N/A,,Mostly Cloudy,210,2012-12-03 16:36:00
10:52 AM,72.0,57.0,59,29.73,10.0,SSW,28.8,40.3,N/A,,Mostly Cloudy,210,2012-12-03 16:52:00
11:52 AM,72.0,55.0,55,29.74,10.0,SW,24.2,35.7,N/A,,Scattered Clouds,230,2012-12-03 17:52:00
12:52 PM,73.0,54.0,51,29.74,10.0,SW,19.6,27.6,N/A,,Mostly Cloudy,230,2012-12-03 18:52:00
1:52 PM,73.9,51.1,45,29.75,10.0,West,15.0,-,N/A,,Mostly Cloudy,270,2012-12-03 19:52:00
2:52 PM,72.0,51.1,48,29.77,10.0,West,15.0,-,N/A,,Clear,260,2012-12-03 20:52:00
3:52 PM,64.9,44.1,47,29.82,10.0,NNW,18.4,29.9,N/A,,Clear,330,2012-12-03 21:52:00
3:59 PM,64.4,42.8,45,29.84,10.0,NNW,21.9,27.6,N/A,,Clear,330,2012-12-03 21:59:00
4:52 PM,59.0,39.9,49,29.88,10.0,NNW,13.8,-,N/A,,Clear,340,2012-12-03 22:52:00
5:52 PM,57.9,42.1,56,29.92,10.0,NNW,6.9,-,N/A,,Mostly Cloudy,330,2012-12-03 23:52:00
6:52 PM,59.0,42.1,53,29.95,10.0,NNW,8.1,-,N/A,,Overcast,340,2012-12-04 00:52:00
7:52 PM,57.9,41.0,53,29.98,10.0,North,8.1,-,N/A,,Overcast,350,2012-12-04 01:52:00
8:52 PM,50.0,39.0,66,30.00,10.0,NW,6.9,-,N/A,,Scattered Clouds,310,2012-12-04 02:52:00
9:52 PM,52.0,37.0,57,30.01,10.0,NNW,6.9,-,N/A,,Clear,330,2012-12-04 03:52:00
10:52 PM,51.1,35.1,54,30.04,10.0,NNW,5.8,-,N/A,,Clear,340,2012-12-04 04:52:00
11:52 PM,48.9,34.0,56,30.05,10.0,WNW,5.8,-,N/A,,Clear,300,2012-12-04 05:52:00